createdAt,value
2019-03-23T00:00:59.213Z,97256.54
2019-03-23T00:03:26.201Z,97260.20
2019-03-23T00:05:53.092Z,97262.58
2019-03-23T00:08:20.055Z,97263.58
2019-03-23T00:10:46.921Z,97262.92
2019-03-23T00:13:13.892Z,97270.27
2019-03-23T00:15:40.768Z,97268.45
2019-03-23T00:18:07.649Z,97275.78
2019-03-23T00:20:34.565Z,97261.16
2019-03-23T00:23:01.429Z,97256.19
2019-03-23T00:25:28.307Z,97257.58
2019-03-23T00:27:55.160Z,97249.61
2019-03-23T00:30:22.047Z,97254.78
2019-03-23T00:32:48.917Z,97249.30
2019-03-23T00:35:15.789Z,97244.66
2019-03-23T00:37:42.671Z,97248.05
2019-03-23T00:40:13.733Z,97248.73
2019-03-23T00:42:40.781Z,97247.59
2019-03-23T00:45:07.805Z,97248.77
2019-03-23T00:47:34.688Z,97247.11
2019-03-23T00:50:01.544Z,97250.78
2019-03-23T00:52:28.416Z,97242.17
2019-03-23T00:54:55.289Z,97250.83
2019-03-23T00:57:22.151Z,97243.86
2019-03-23T00:59:49.110Z,97250.36
2019-03-23T01:02:15.979Z,97243.22
2019-03-23T01:04:42.838Z,97241.06
2019-03-23T01:07:09.677Z,97248.21
2019-03-23T01:09:36.541Z,97246.55
2019-03-23T01:12:03.539Z,97244.59
2019-03-23T01:14:30.402Z,97242.11
2019-03-23T01:16:57.260Z,97244.94
2019-03-23T01:19:24.112Z,97242.78
2019-03-23T01:21:50.988Z,97237.30
2019-03-23T01:24:17.884Z,97233.98
2019-03-23T01:26:44.748Z,97237.31
2019-03-23T01:29:11.638Z,97237.66
2019-03-23T01:31:38.532Z,97232.19
2019-03-23T01:34:05.397Z,97239.83
2019-03-23T01:36:32.373Z,97232.86
2019-03-23T01:38:59.333Z,97231.40
2019-03-23T01:41:26.209Z,97225.42
2019-03-23T01:43:53.072Z,97219.77
2019-03-23T01:46:19.854Z,97214.13
2019-03-23T01:48:46.718Z,97210.64
2019-03-23T01:51:13.599Z,97211.81
2019-03-23T01:53:40.482Z,97214.64
2019-03-23T01:56:07.362Z,97206.01
2019-03-23T01:58:34.319Z,97207.83
2019-03-23T02:01:01.200Z,97209.66
2019-03-23T02:03:28.155Z,97213.82
2019-03-23T02:05:55.024Z,97208.84
2019-03-23T02:08:21.893Z,97209.55
2019-03-23T02:10:48.863Z,97204.08
2019-03-23T02:13:15.828Z,97212.55
2019-03-23T02:15:42.676Z,97208.40
2019-03-23T02:18:09.555Z,97210.23
2019-03-23T02:20:36.448Z,97208.56
2019-03-23T02:23:03.311Z,97216.55
2019-03-23T02:25:30.173Z,97216.71
2019-03-23T02:27:57.122Z,97212.56
2019-03-23T02:30:24.043Z,97212.73
2019-03-23T02:32:50.896Z,97214.73
2019-03-23T02:35:17.778Z,97220.22
2019-03-23T02:37:44.743Z,97215.93
2019-03-23T02:40:11.806Z,97214.77
2019-03-23T02:42:38.763Z,97211.45
2019-03-23T02:45:06.232Z,97210.29
2019-03-23T02:47:33.199Z,97213.45
2019-03-23T02:50:00.421Z,97216.60
2019-03-23T02:52:35.410Z,97211.95
2019-03-23T02:55:02.289Z,97209.64
2019-03-23T02:57:29.157Z,97210.30
2019-03-23T02:59:56.143Z,97211.30
2019-03-23T03:02:23.010Z,97219.80
2019-03-23T03:04:49.884Z,97222.47
2019-03-23T03:07:16.753Z,97212.67
2019-03-23T03:09:43.619Z,97216.83
2019-03-23T03:12:10.488Z,97211.84
2019-03-23T03:14:37.506Z,97223.97
2019-03-23T03:17:04.364Z,97227.12
2019-03-23T03:19:31.230Z,97218.32
2019-03-23T03:21:58.105Z,97220.31
2019-03-23T03:24:24.987Z,97214.67
2019-03-23T03:26:51.973Z,97216.20
2019-03-23T03:29:18.826Z,97216.36
2019-03-23T03:31:45.669Z,97215.70
2019-03-23T03:34:12.523Z,97219.02
2019-03-23T03:36:39.477Z,97214.38
2019-03-23T03:39:07.056Z,97212.88
2019-03-23T03:41:33.925Z,97210.89
2019-03-23T03:44:00.888Z,97210.39
2019-03-23T03:46:27.875Z,97213.55
2019-03-23T03:48:54.793Z,97215.86
2019-03-23T03:51:21.671Z,97217.69
2019-03-23T03:53:48.562Z,97215.70
2019-03-23T03:56:15.527Z,97211.91
2019-03-23T03:58:42.494Z,97216.89
2019-03-23T04:01:09.447Z,97219.05
2019-03-23T04:03:36.319Z,97215.39
2019-03-23T04:06:03.291Z,97216.88
2019-03-23T04:08:30.191Z,97210.44
2019-03-23T04:10:57.185Z,97214.91
2019-03-23T04:13:24.045Z,97212.25
2019-03-23T04:15:50.953Z,97221.86
2019-03-23T04:18:17.920Z,97222.02
2019-03-23T04:20:44.807Z,97227.83
2019-03-23T04:23:11.664Z,97222.22
2019-03-23T04:25:38.646Z,97218.23
2019-03-23T04:28:05.586Z,97222.22
2019-03-23T04:30:32.462Z,97220.72
2019-03-23T04:32:59.340Z,97219.39
2019-03-23T04:35:26.247Z,97224.38
2019-03-23T04:37:53.189Z,97224.87
2019-03-23T04:40:20.038Z,97222.05
2019-03-23T04:42:46.911Z,97221.70
2019-03-23T04:45:13.867Z,97234.13
2019-03-23T04:47:40.729Z,97236.45
2019-03-23T04:50:07.589Z,97228.00
2019-03-23T04:52:34.485Z,97229.98
2019-03-23T04:55:01.437Z,97229.97
2019-03-23T04:57:28.307Z,97232.62
2019-03-23T04:59:55.172Z,97237.92
2019-03-23T05:02:22.041Z,97247.55
2019-03-23T05:04:48.897Z,97239.27
2019-03-23T05:07:15.748Z,97239.78
2019-03-23T05:09:42.679Z,97246.75
2019-03-23T05:12:09.555Z,97256.19
2019-03-23T05:14:36.431Z,97250.89
2019-03-23T05:17:03.314Z,97251.20
2019-03-23T05:19:30.292Z,97248.38
2019-03-23T05:21:57.162Z,97252.34
2019-03-23T05:24:24.016Z,97257.81
2019-03-23T05:26:50.857Z,97252.17
2019-03-23T05:29:17.724Z,97252.17
2019-03-23T05:31:44.573Z,97251.84
2019-03-23T05:34:11.455Z,97252.84
2019-03-23T05:36:38.336Z,97257.49
2019-03-23T05:39:05.705Z,97253.52
2019-03-23T05:41:32.568Z,97258.84
2019-03-23T05:43:59.460Z,97260.16
2019-03-23T05:46:26.437Z,97254.52
2019-03-23T05:48:53.392Z,97255.53
2019-03-23T05:51:20.265Z,97256.87
2019-03-23T05:53:47.222Z,97257.84
2019-03-23T05:56:14.085Z,97266.32
2019-03-23T05:58:40.940Z,97265.17
2019-03-23T06:01:07.808Z,97269.97
2019-03-23T06:03:34.682Z,97270.31
2019-03-23T06:06:01.544Z,97273.45
2019-03-23T06:08:28.406Z,97268.64
2019-03-23T06:10:55.266Z,97270.77
2019-03-23T06:13:22.137Z,97281.06
2019-03-23T06:15:49.091Z,97278.71
2019-03-23T06:20:55.373Z,97279.70
2019-03-23T06:23:22.244Z,97279.98
2019-03-23T06:25:49.110Z,97285.78
2019-03-23T06:28:15.989Z,97276.59
2019-03-23T06:30:42.931Z,97271.94
2019-03-23T06:33:09.799Z,97268.97
2019-03-23T06:35:36.674Z,97271.38
2019-03-23T06:38:03.539Z,97267.46
2019-03-23T06:40:30.500Z,97266.50
2019-03-23T06:42:59.896Z,97259.17
2019-03-23T06:45:35.871Z,97267.37
2019-03-23T06:48:02.741Z,97270.70
2019-03-23T06:50:29.691Z,97264.84
2019-03-23T06:52:56.576Z,97275.55
2019-03-23T06:55:23.553Z,97269.10
2019-03-23T06:57:50.526Z,97273.36
2019-03-23T07:00:17.411Z,97271.23
2019-03-23T07:02:44.383Z,97265.94
2019-03-23T07:05:11.370Z,97274.27
2019-03-23T07:07:38.331Z,97277.58
2019-03-23T07:10:06.771Z,97276.31
2019-03-23T07:12:33.731Z,97276.92
2019-03-23T07:15:00.641Z,97278.17
2019-03-23T07:17:27.577Z,97277.23
2019-03-23T07:19:54.454Z,97277.47
2019-03-23T07:22:21.457Z,97271.00
2019-03-23T07:24:48.325Z,97269.53
2019-03-23T07:27:15.223Z,97268.47
2019-03-23T07:29:42.092Z,97275.31
2019-03-23T07:32:08.963Z,97282.59
2019-03-23T07:34:35.941Z,97275.34
2019-03-23T07:37:02.837Z,97275.72
2019-03-23T07:39:30.580Z,97277.44
2019-03-23T07:41:57.589Z,97270.95
2019-03-23T07:44:24.457Z,97260.94
2019-03-23T07:46:51.315Z,97271.83
2019-03-23T07:49:18.177Z,97269.73
2019-03-23T07:51:45.051Z,97264.62
2019-03-23T07:54:11.923Z,97266.31
2019-03-23T07:56:38.913Z,97264.09
2019-03-23T07:59:05.793Z,97263.91
2019-03-23T08:01:32.661Z,97262.18
2019-03-23T08:03:59.546Z,97261.16
2019-03-23T08:06:26.413Z,97260.08
2019-03-23T08:08:53.318Z,97258.39
2019-03-23T08:11:20.291Z,97256.70
2019-03-23T08:13:47.281Z,97247.83
2019-03-23T08:16:14.235Z,97247.62
2019-03-23T08:18:41.128Z,97250.09
2019-03-23T08:21:08.101Z,97248.02
2019-03-23T08:23:34.956Z,97255.35
2019-03-23T08:26:01.830Z,97252.97
2019-03-23T08:28:28.688Z,97251.81
2019-03-23T08:30:55.566Z,97256.13
2019-03-23T08:33:22.525Z,97254.66
2019-03-23T08:35:49.396Z,97257.11
2019-03-23T08:38:16.261Z,97248.45
2019-03-23T08:40:43.148Z,97244.69
2019-03-23T08:43:10.029Z,97243.58
2019-03-23T08:45:37.003Z,97252.80
2019-03-23T08:48:03.862Z,97251.43
2019-03-23T08:50:30.806Z,97250.73
2019-03-23T08:52:57.825Z,97249.05
2019-03-23T08:55:24.712Z,97250.95
2019-03-23T08:57:51.664Z,97244.08
2019-03-23T09:00:18.543Z,97243.34
2019-03-23T09:02:45.457Z,97243.78
2019-03-23T09:05:12.435Z,97235.48
2019-03-23T09:07:39.299Z,97237.26
2019-03-23T09:10:20.494Z,97234.37
2019-03-23T09:12:41.337Z,97229.67
2019-03-23T09:15:08.281Z,97237.87
2019-03-23T09:17:35.284Z,97232.11
2019-03-23T09:20:02.328Z,97236.67
2019-03-23T09:22:29.195Z,97233.52
2019-03-23T09:24:56.936Z,97232.46
2019-03-23T09:27:31.469Z,97234.01
2019-03-23T09:29:58.431Z,97231.96
2019-03-23T09:32:25.331Z,97221.84
2019-03-23T09:34:52.311Z,97220.09
2019-03-23T09:37:19.284Z,97217.80
2019-03-23T09:39:46.265Z,97215.55
2019-03-23T09:42:13.245Z,97212.67
2019-03-23T09:44:40.144Z,97218.36
2019-03-23T09:47:07.030Z,97218.73
2019-03-23T09:49:34.015Z,97209.85
2019-03-23T09:52:01.001Z,97204.43
2019-03-23T09:54:27.889Z,97208.16
2019-03-23T09:56:54.771Z,97203.16
2019-03-23T09:59:21.697Z,97209.66
2019-03-23T10:01:48.664Z,97207.97
2019-03-23T10:04:15.566Z,97207.59
2019-03-23T10:06:42.514Z,97200.52
2019-03-23T10:09:09.402Z,97198.91
2019-03-23T10:11:36.295Z,97192.09
2019-03-23T10:14:03.315Z,97195.80
2019-03-23T10:16:30.261Z,97194.58
2019-03-23T10:18:57.133Z,97188.73
2019-03-23T10:21:24.050Z,97183.75
2019-03-23T10:23:51.040Z,97180.19
2019-03-23T10:26:18.022Z,97180.10
2019-03-23T10:28:44.917Z,97182.16
2019-03-23T10:31:11.825Z,97167.70
2019-03-23T10:33:38.809Z,97167.91
2019-03-23T10:36:05.690Z,97163.88
2019-03-23T10:38:32.662Z,97164.42
2019-03-23T10:40:59.643Z,97163.26
2019-03-23T10:43:26.518Z,97165.00
2019-03-23T10:45:53.404Z,97155.30
2019-03-23T10:48:20.319Z,97155.63
2019-03-23T10:50:47.326Z,97154.01
2019-03-23T10:53:22.802Z,97149.66
2019-03-23T10:55:43.270Z,97145.78
2019-03-23T10:58:10.251Z,97141.89
2019-03-23T11:00:37.126Z,97140.19
2019-03-23T11:03:04.006Z,97134.14
2019-03-23T11:05:30.903Z,97125.36
2019-03-23T11:07:57.894Z,97126.34
2019-03-23T11:10:24.803Z,97129.63
2019-03-23T11:12:51.718Z,97118.70
2019-03-23T11:15:18.598Z,97119.73
2019-03-23T11:17:45.525Z,97116.25
2019-03-23T11:20:12.459Z,97113.89
2019-03-23T11:22:39.352Z,97109.53
2019-03-23T11:28:07.825Z,97112.21
2019-03-23T11:30:34.707Z,97099.34
2019-03-23T11:33:01.598Z,97100.57
2019-03-23T11:35:28.599Z,97096.50
2019-03-23T11:37:55.761Z,97092.23
2019-03-23T11:40:30.794Z,97093.95
2019-03-23T11:42:57.668Z,97087.46
2019-03-23T11:45:24.542Z,97088.05
2019-03-23T11:47:51.445Z,97086.45
2019-03-23T11:50:18.317Z,97079.59
2019-03-23T11:52:46.993Z,97082.02
2019-03-23T11:55:19.995Z,97078.39
2019-03-23T11:57:46.980Z,97078.42
2019-03-23T12:00:13.985Z,97078.71
2019-03-23T12:02:40.963Z,97074.72
2019-03-23T12:05:07.774Z,97082.03
2019-03-23T12:07:34.665Z,97065.58
2019-03-23T12:10:01.649Z,97069.30
2019-03-23T12:12:28.522Z,97065.63
2019-03-23T12:14:55.393Z,97059.88
2019-03-23T12:17:22.381Z,97058.06
2019-03-23T12:19:49.361Z,97062.29
2019-03-23T12:22:16.234Z,97065.29
2019-03-23T12:24:43.205Z,97052.96
2019-03-23T12:27:10.192Z,97056.44
2019-03-23T12:29:37.157Z,97048.25
2019-03-23T12:32:04.295Z,97041.36
2019-03-23T12:34:31.167Z,97044.56
2019-03-23T12:36:58.046Z,97038.07
2019-03-23T12:39:25.031Z,97034.91
2019-03-23T12:41:51.998Z,97030.37
2019-03-23T12:44:18.988Z,97028.20
2019-03-23T12:46:48.476Z,97025.57
2019-03-23T12:49:14.714Z,97029.45
2019-03-23T12:51:41.588Z,97031.28
2019-03-23T12:54:08.454Z,97029.34
2019-03-23T12:56:35.413Z,97026.86
2019-03-23T12:59:02.330Z,97023.69
2019-03-23T13:01:29.316Z,97024.51
2019-03-23T13:03:56.188Z,97023.86
2019-03-23T13:06:23.148Z,97026.24
2019-03-23T13:08:50.034Z,97027.48
2019-03-23T13:11:23.324Z,97026.36
2019-03-23T13:13:45.660Z,97016.44
2019-03-23T13:16:12.534Z,97018.07
2019-03-23T13:18:39.506Z,97019.28
2019-03-23T13:21:06.488Z,97018.02
2019-03-23T13:23:33.356Z,97023.16
2019-03-23T13:26:00.230Z,97016.57
2019-03-23T13:28:27.138Z,97011.97
2019-03-23T13:30:53.983Z,96999.53
2019-03-23T13:33:20.878Z,97008.03
2019-03-23T13:35:47.731Z,96997.02
2019-03-23T13:38:14.653Z,97001.52
2019-03-23T13:40:41.621Z,97003.09
2019-03-23T13:43:08.610Z,96997.63
2019-03-23T13:45:42.565Z,96997.30
2019-03-23T13:48:10.982Z,96998.33
2019-03-23T13:50:37.947Z,96987.64
2019-03-23T13:53:04.903Z,96990.76
2019-03-23T13:55:32.307Z,96983.45
2019-03-23T13:58:08.659Z,96980.50
2019-03-23T14:00:35.613Z,96981.31
2019-03-23T14:03:02.487Z,96977.33
2019-03-23T14:05:29.379Z,96979.05
2019-03-23T14:07:56.279Z,96971.92
2019-03-23T14:10:23.252Z,96971.24
2019-03-23T14:12:50.123Z,96966.41
2019-03-23T14:15:17.035Z,96961.97
2019-03-23T14:17:43.909Z,96961.67
2019-03-23T14:20:10.897Z,96964.75
2019-03-23T14:22:37.873Z,96961.74
2019-03-23T14:25:04.756Z,96959.89
2019-03-23T14:27:31.639Z,96961.52
2019-03-23T14:29:58.616Z,96957.81
2019-03-23T14:32:25.605Z,96956.38
2019-03-23T14:34:52.570Z,96956.92
2019-03-23T14:37:19.484Z,96956.23
2019-03-23T14:39:46.430Z,96956.34
2019-03-23T14:42:13.302Z,96953.33
2019-03-23T14:44:40.192Z,96950.28
2019-03-23T14:47:07.066Z,96952.90
2019-03-23T14:49:33.963Z,96954.77
2019-03-23T14:52:00.927Z,96946.89
2019-03-23T14:54:27.846Z,96964.64
2019-03-23T14:56:54.834Z,96955.47
2019-03-23T14:59:21.828Z,96952.89
2019-03-23T15:01:48.697Z,96957.27
2019-03-23T15:04:15.681Z,96955.90
2019-03-23T15:06:42.642Z,96955.33
2019-03-23T15:09:09.534Z,96962.36
2019-03-23T15:11:36.520Z,96955.19
2019-03-23T15:14:03.498Z,96955.03
2019-03-23T15:16:30.400Z,96954.27
2019-03-23T15:19:00.688Z,96954.27
2019-03-23T15:21:27.556Z,96952.97
2019-03-23T15:23:54.457Z,96955.33
2019-03-23T15:26:21.383Z,96947.11
2019-03-23T15:28:48.355Z,96945.47
2019-03-23T15:31:15.252Z,96949.69
2019-03-23T15:33:42.276Z,96945.48
2019-03-23T15:36:09.262Z,96945.41
2019-03-23T15:38:36.242Z,96943.52
2019-03-23T15:41:03.152Z,96941.38
2019-03-23T15:43:30.140Z,96944.23
2019-03-23T15:45:57.144Z,96948.91
2019-03-23T15:48:24.013Z,96946.15
2019-03-23T15:50:50.931Z,96947.14
2019-03-23T15:53:17.918Z,96952.16
2019-03-23T15:55:44.914Z,96945.48
2019-03-23T15:58:11.803Z,96950.58
2019-03-23T16:00:38.784Z,96945.63
2019-03-23T16:03:05.781Z,96943.66
2019-03-23T16:05:32.768Z,96938.16
2019-03-23T16:07:59.685Z,96940.98
2019-03-23T16:10:26.574Z,96945.59
2019-03-23T16:12:53.471Z,96938.45
2019-03-23T16:15:20.351Z,96934.13
2019-03-23T16:17:47.259Z,96940.45
2019-03-23T16:20:14.148Z,96936.23
2019-03-23T16:22:41.133Z,96937.63
2019-03-23T16:25:08.497Z,96948.81
2019-03-23T16:27:35.469Z,96949.42
2019-03-23T16:30:02.459Z,96952.86
2019-03-23T16:32:29.513Z,96948.73
2019-03-23T16:34:56.489Z,96953.92
2019-03-23T16:37:23.505Z,96949.84
2019-03-23T16:39:50.492Z,96949.67
2019-03-23T16:42:17.484Z,96951.67
2019-03-23T16:44:44.387Z,96953.33
2019-03-23T16:47:11.358Z,96956.48
2019-03-23T16:49:38.387Z,96955.51
2019-03-23T16:52:05.364Z,96957.00
2019-03-23T16:54:32.337Z,96953.02
2019-03-23T16:56:59.331Z,96956.67
2019-03-23T16:59:26.318Z,96960.58
2019-03-23T17:01:53.293Z,96963.89
2019-03-23T17:04:20.295Z,96966.08
2019-03-23T17:06:47.294Z,96967.66
2019-03-23T17:09:14.521Z,96966.56
2019-03-23T17:11:41.412Z,96967.33
2019-03-23T17:14:08.300Z,96969.73
2019-03-23T17:16:35.186Z,96964.78
2019-03-23T17:19:02.217Z,96969.30
2019-03-23T17:21:29.204Z,96971.95
2019-03-23T17:23:56.213Z,96966.93
2019-03-23T17:26:23.086Z,96975.20
2019-03-23T17:28:49.982Z,96968.47
2019-03-23T17:31:16.990Z,96971.69
2019-03-23T17:33:43.894Z,96973.30
2019-03-23T17:36:10.946Z,96972.72
2019-03-23T17:38:37.917Z,96980.31
2019-03-23T17:41:04.962Z,96976.73
2019-03-23T17:43:31.993Z,96984.77
2019-03-23T17:45:58.887Z,96987.75
2019-03-23T17:48:25.873Z,96986.94
2019-03-23T17:50:52.878Z,96988.88
2019-03-23T17:53:19.863Z,96984.81
2019-03-23T17:55:46.877Z,96987.51
2019-03-23T17:58:13.862Z,96990.20
2019-03-23T18:00:40.906Z,96994.27
2019-03-23T18:03:07.877Z,96988.63
2019-03-23T18:05:34.811Z,96986.72
2019-03-23T18:08:01.694Z,96992.41
2019-03-23T18:10:28.652Z,96994.91
2019-03-23T18:12:55.663Z,96991.45
2019-03-23T18:15:22.681Z,96994.18
2019-03-23T18:17:51.257Z,97002.56
2019-03-23T18:20:18.232Z,97008.28
2019-03-23T18:22:45.119Z,97008.03
2019-03-23T18:25:14.992Z,97016.13
2019-03-23T18:27:41.934Z,97015.34
2019-03-23T18:30:14.668Z,97021.81
2019-03-23T18:32:41.573Z,97021.58
2019-03-23T18:35:08.540Z,97025.34
2019-03-23T18:37:35.521Z,97027.64
2019-03-23T18:40:02.688Z,97029.59
2019-03-23T18:42:29.751Z,97038.48
2019-03-23T18:44:56.995Z,97034.14
2019-03-23T18:47:24.012Z,97035.83
2019-03-23T18:49:51.037Z,97037.41
2019-03-23T18:52:18.076Z,97036.31
2019-03-23T18:54:45.071Z,97039.52
2019-03-23T18:57:12.023Z,97047.70
2019-03-23T18:59:39.005Z,97044.70
2019-03-23T19:02:06.067Z,97048.83
2019-03-23T19:04:32.943Z,97052.63
2019-03-23T19:06:59.940Z,97060.23
2019-03-23T19:09:26.856Z,97061.14
2019-03-23T19:11:53.859Z,97053.92
2019-03-23T19:14:20.907Z,97065.26
2019-03-23T19:16:47.887Z,97056.45
2019-03-23T19:19:14.920Z,97063.45
2019-03-23T19:21:41.922Z,97058.36
2019-03-23T19:24:08.995Z,97059.75
2019-03-23T19:26:35.989Z,97063.83
2019-03-23T19:29:03.020Z,97070.11
2019-03-23T19:31:30.013Z,97069.63
2019-03-23T19:33:57.163Z,97071.22
2019-03-23T19:36:24.210Z,97073.45
2019-03-23T19:38:51.155Z,97073.70
2019-03-23T19:41:18.079Z,97068.30
2019-03-23T19:43:49.692Z,97070.93
2019-03-23T19:46:13.747Z,97077.40
2019-03-23T19:48:40.733Z,97075.87
2019-03-23T19:51:07.637Z,97076.51
2019-03-23T19:53:34.650Z,97075.49
2019-03-23T19:56:01.569Z,97075.03
2019-03-23T19:58:28.461Z,97074.32
2019-03-23T20:00:55.369Z,97081.87
2019-03-23T20:03:22.330Z,97078.41
2019-03-23T20:05:49.213Z,97084.11
2019-03-23T20:08:16.105Z,97078.03
2019-03-23T20:10:43.110Z,97079.48
2019-03-23T20:13:10.101Z,97076.02
2019-03-23T20:15:37.079Z,97076.13
2019-03-23T20:18:04.138Z,97085.21
2019-03-23T20:20:31.175Z,97081.33
2019-03-23T20:22:58.183Z,97083.05
2019-03-23T20:25:25.064Z,97081.51
2019-03-23T20:27:52.020Z,97083.06
2019-03-23T20:30:18.881Z,97085.43
2019-03-23T20:32:45.776Z,97085.95
2019-03-23T20:35:12.658Z,97092.86
2019-03-23T20:37:39.930Z,97093.27
2019-03-23T20:40:07.544Z,97092.89
2019-03-23T20:42:34.538Z,97097.12
2019-03-23T20:45:01.535Z,97092.48
2019-03-23T20:47:28.443Z,97090.31
2019-03-23T20:49:55.401Z,97094.74
2019-03-23T20:52:22.347Z,97095.16
2019-03-23T20:54:49.268Z,97100.03
2019-03-23T20:57:23.751Z,97095.48
2019-03-23T20:59:45.042Z,97094.97
2019-03-23T21:02:11.954Z,97096.84
2019-03-23T21:04:38.840Z,97101.68
2019-03-23T21:07:05.813Z,97107.84
2019-03-23T21:09:32.698Z,97103.61
2019-03-23T21:11:59.716Z,97103.84
2019-03-23T21:14:26.673Z,97107.12
2019-03-23T21:16:53.567Z,97109.08
2019-03-23T21:19:20.553Z,97098.05
2019-03-23T21:21:47.416Z,97094.03
2019-03-23T21:24:14.309Z,97095.38
2019-03-23T21:26:41.290Z,97090.77
2019-03-23T21:29:08.193Z,97089.12
2019-03-23T21:31:35.067Z,97090.14
2019-03-23T21:34:02.072Z,97087.98
2019-03-23T21:36:29.049Z,97091.06
2019-03-23T21:38:56.053Z,97084.46
2019-03-23T21:41:23.018Z,97080.02
2019-03-23T21:43:49.917Z,97083.94
2019-03-23T21:46:16.772Z,97080.34
2019-03-23T21:48:43.702Z,97075.91
2019-03-23T21:51:10.659Z,97071.16
2019-03-23T21:53:38.827Z,97080.42
2019-03-23T21:56:06.141Z,97072.28
2019-03-23T21:58:32.998Z,97075.67
2019-03-23T22:00:59.885Z,97074.53
2019-03-23T22:03:26.812Z,97071.78
2019-03-23T22:05:53.752Z,97071.16
2019-03-23T22:08:20.723Z,97063.52
2019-03-23T22:10:47.687Z,97060.73
2019-03-23T22:13:14.576Z,97064.95
2019-03-23T22:15:41.556Z,97065.36
2019-03-23T22:18:08.540Z,97062.88
2019-03-23T22:20:35.562Z,97063.91
2019-03-23T22:23:02.410Z,97059.78
2019-03-23T22:25:29.352Z,97058.05
2019-03-23T22:27:56.326Z,97062.27
2019-03-23T22:30:23.352Z,97060.09
2019-03-23T22:32:50.302Z,97061.13
2019-03-23T22:35:17.306Z,97060.50
2019-03-23T22:37:44.171Z,97060.70
2019-03-23T22:40:14.451Z,97056.57
2019-03-23T22:42:41.491Z,97059.33
2019-03-23T22:45:08.419Z,97053.78
2019-03-23T22:47:35.329Z,97057.88
2019-03-23T22:50:02.204Z,97055.09
2019-03-23T22:52:29.242Z,97056.31
2019-03-23T22:54:56.203Z,97049.00
2019-03-23T22:57:23.214Z,97050.42
2019-03-23T22:59:50.171Z,97042.83
2019-03-23T23:02:17.156Z,97047.23
2019-03-23T23:04:44.022Z,97046.48
2019-03-23T23:07:11.001Z,97040.71
2019-03-23T23:09:37.869Z,97039.77
2019-03-23T23:12:05.598Z,97038.34
2019-03-23T23:14:32.507Z,97038.55
2019-03-23T23:16:59.461Z,97035.55
2019-03-23T23:19:26.377Z,97029.27
2019-03-23T23:21:53.256Z,97026.67
2019-03-23T23:24:20.282Z,97021.41
2019-03-23T23:26:47.155Z,97021.20
2019-03-23T23:29:14.121Z,97020.97
2019-03-23T23:31:40.991Z,97013.14
2019-03-23T23:34:07.955Z,97015.19
2019-03-23T23:36:34.823Z,97011.57
2019-03-23T23:39:01.697Z,97018.52
2019-03-23T23:41:28.573Z,97013.80
2019-03-23T23:43:55.470Z,97011.32
2019-03-23T23:46:22.349Z,97005.16
2019-03-23T23:48:51.557Z,97013.05
2019-03-23T23:51:17.986Z,97003.06
2019-03-23T23:53:44.864Z,97005.81
2019-03-23T23:56:11.794Z,96996.56
2019-03-23T23:58:38.650Z,97001.59
